Time;durP1;ratioP1;P1;durP2;ratioP2;P2;SDS_P1;SDS_P2;PMS_P1;PMS_P2;Temp;Humidity;BMP_temperature;BMP_pressure;BME280_temperature;BME280_humidity;BME280_pressure;Samples;Min_cycle;Max_cycle;Signal;HPM_P1;HPM_P2
2021/09/09 00:01:07;;;;;;;10.65;5.78;;;384.70;2048.00;;;;;;6306281;22;20074;-61
2021/09/09 00:03:33;;;;;;;10.63;5.88;;;384.80;2073.60;;;;;;6307238;22;20007;-61
2021/09/09 00:05:58;;;;;;;10.75;5.65;;;384.70;2048.00;;;;;;6305685;22;20092;-61
2021/09/09 00:08:24;;;;;;;9.38;6.28;;;384.70;2048.00;;;;;;6306631;22;20007;-61
2021/09/09 00:10:50;;;;;;;11.80;6.22;;;384.70;2073.60;;;;;;6306972;22;20058;-61
2021/09/09 00:13:16;;;;;;;8.68;5.90;;;384.70;2073.60;;;;;;6306056;22;20365;-64
2021/09/09 00:15:42;;;;;;;11.23;5.97;;;384.70;2073.60;;;;;;6308917;22;19999;-64
2021/09/09 00:18:08;;;;;;;12.15;5.70;;;384.60;2073.60;;;;;;6309258;22;20046;-61
2021/09/09 00:20:34;;;;;;;9.52;5.82;;;384.70;2073.60;;;;;;6308871;22;20079;-62
2021/09/09 00:23:00;;;;;;;10.75;5.75;;;384.70;2073.60;;;;;;6309089;22;20022;-69
2021/09/09 00:25:26;;;;;;;9.88;6.05;;;384.60;2048.00;;;;;;6309141;22;19995;-64
2021/09/09 00:27:51;;;;;;;10.10;6.50;;;384.70;2073.60;;;;;;6309047;22;20015;-61
2021/09/09 00:30:17;;;;;;;10.77;6.25;;;384.60;2073.60;;;;;;6309106;22;20002;-67
2021/09/09 00:32:43;;;;;;;11.85;6.22;;;384.50;2099.20;;;;;;6308271;22;20007;-67
2021/09/09 00:35:09;;;;;;;11.15;6.60;;;384.50;2099.20;;;;;;6308723;22;20057;-61
2021/09/09 00:37:35;;;;;;;15.68;6.43;;;384.40;2124.80;;;;;;6309088;22;20010;-62
2021/09/09 00:40:00;;;;;;;9.80;6.10;;;384.30;2099.20;;;;;;6308697;22;19995;-62
2021/09/09 00:42:26;;;;;;;10.48;6.25;;;384.40;2099.20;;;;;;6307103;22;20008;-65
2021/09/09 00:44:52;;;;;;;11.63;6.28;;;384.20;2099.20;;;;;;6306681;22;20042;-61
2021/09/09 00:47:17;;;;;;;9.18;5.55;;;384.30;2124.80;;;;;;6308360;22;20039;-61
2021/09/09 00:49:44;;;;;;;10.75;5.68;;;384.30;2073.60;;;;;;6307647;22;19999;-61
2021/09/09 00:52:11;;;;;;;12.63;5.60;;;384.30;2073.60;;;;;;6304921;22;20007;-61
2021/09/09 00:54:37;;;;;;;8.75;5.25;;;384.30;2048.00;;;;;;6305428;22;19995;-66
2021/09/09 00:57:05;;;;;;;10.05;5.65;;;384.30;2048.00;;;;;;6278234;22;20430;-62
2021/09/09 00:59:35;;;;;;;10.60;5.63;;;384.40;2048.00;;;;;;6305692;22;20007;-62
2021/09/09 01:02:02;;;;;;;8.32;5.45;;;384.40;2048.00;;;;;;6278917;22;20437;-61
2021/09/09 01:04:28;;;;;;;10.90;5.70;;;384.50;2048.00;;;;;;6306811;22;20007;-61
2021/09/09 01:06:55;;;;;;;10.93;6.00;;;384.40;2048.00;;;;;;6306620;22;20448;-71
2021/09/09 01:09:21;;;;;;;8.63;6.05;;;384.40;2048.00;;;;;;6306641;22;20001;-61
2021/09/09 01:11:47;;;;;;;11.48;6.38;;;384.50;2073.60;;;;;;6306537;22;20075;-70
2021/09/09 01:14:15;;;;;;;12.02;6.30;;;384.50;2073.60;;;;;;6279044;22;20031;-64
2021/09/09 01:16:43;;;;;;;11.50;6.50;;;384.40;2048.00;;;;;;6306594;22;20000;-61
2021/09/09 01:19:10;;;;;;;8.93;6.03;;;384.40;2073.60;;;;;;6306370;22;19999;-63
2021/09/09 01:21:37;;;;;;;11.30;6.78;;;384.40;2099.20;;;;;;6306631;22;19999;-62
2021/09/09 01:24:09;;;;;;;12.15;6.45;;;384.30;2099.20;;;;;;6306214;22;20515;-69
2021/09/09 01:26:52;;;;;;;11.48;6.70;;;384.30;2099.20;;;;;;6306010;22;20376;-62
2021/09/09 01:29:20;;;;;;;16.05;6.95;;;384.30;2099.20;;;;;;6306864;22;20003;-62
2021/09/09 01:31:45;;;;;;;11.50;7.30;;;384.30;2099.20;;;;;;6308028;22;20007;-63
2021/09/09 01:34:11;;;;;;;11.98;6.63;;;384.30;2099.20;;;;;;6307948;22;20025;-62
2021/09/09 01:36:37;;;;;;;13.80;6.93;;;384.20;2099.20;;;;;;6308158;22;20007;-62
2021/09/09 01:39:03;;;;;;;10.68;7.10;;;384.20;2099.20;;;;;;6308268;22;20003;-70
2021/09/09 01:41:28;;;;;;;13.05;7.00;;;384.20;2099.20;;;;;;6308196;22;20484;-61
2021/09/09 01:43:54;;;;;;;11.02;7.03;;;384.20;2099.20;;;;;;6307058;22;20003;-62
2021/09/09 01:46:20;;;;;;;12.20;7.63;;;384.20;2099.20;;;;;;6308162;22;20012;-62
2021/09/09 01:48:46;;;;;;;11.82;7.15;;;384.20;2099.20;;;;;;6308002;22;19999;-74
2021/09/09 01:51:11;;;;;;;14.10;7.15;;;384.20;2099.20;;;;;;6308218;22;20004;-74
2021/09/09 01:53:37;;;;;;;14.30;7.85;;;384.10;2099.20;;;;;;6280498;22;20111;-75
2021/09/09 01:56:03;;;;;;;10.57;7.53;;;384.10;2124.80;;;;;;6308075;22;20318;-74
2021/09/09 01:58:29;;;;;;;13.93;7.75;;;384.10;2099.20;;;;;;6308109;22;20014;-74
2021/09/09 02:00:57;;;;;;;16.25;8.05;;;384.00;2099.20;;;;;;6308709;22;20000;-75
2021/09/09 02:03:24;;;;;;;13.32;7.68;;;384.00;2099.20;;;;;;6308253;22;20030;-75
2021/09/09 02:05:50;;;;;;;14.20;7.43;;;359.30;2099.20;;;;;;6308064;22;19996;-75
2021/09/09 02:08:16;;;;;;;15.93;7.70;;;359.30;2124.80;;;;;;6308326;22;20010;-74
2021/09/09 02:10:42;;;;;;;15.32;7.82;;;359.30;2124.80;;;;;;6307987;22;19999;-74
2021/09/09 02:13:08;;;;;;;13.45;7.50;;;359.20;2124.80;;;;;;6307974;22;20373;-74
2021/09/09 02:15:33;;;;;;;12.75;6.97;;;359.20;2150.40;;;;;;6308282;22;20046;-74
2021/09/09 02:18:00;;;;;;;13.32;6.82;;;359.20;2150.40;;;;;;6307751;22;19999;-73
2021/09/09 02:20:26;;;;;;;13.30;7.05;;;359.20;2150.40;;;;;;6308088;22;20125;-74
2021/09/09 02:22:52;;;;;;;12.95;7.30;;;359.20;2150.40;;;;;;6280673;22;20414;-74
2021/09/09 02:25:18;;;;;;;13.60;7.57;;;359.20;2150.40;;;;;;6307778;22;20345;-74
2021/09/09 02:27:44;;;;;;;14.38;7.25;;;359.20;2176.00;;;;;;6308427;22;20014;-71
2021/09/09 02:30:10;;;;;;;12.93;6.95;;;359.20;2176.00;;;;;;6308439;22;20002;-70
2021/09/09 02:32:36;;;;;;;12.13;7.30;;;359.10;2201.60;;;;;;6308099;22;20009;-74
2021/09/09 02:35:02;;;;;;;13.05;7.47;;;359.10;2201.60;;;;;;6307743;22;20094;-75
2021/09/09 02:37:28;;;;;;;14.65;6.97;;;359.10;2176.00;;;;;;6309473;22;20325;-74
2021/09/09 02:39:54;;;;;;;14.07;6.93;;;359.20;2201.60;;;;;;6309774;22;20011;-72
2021/09/09 02:42:19;;;;;;;16.20;7.63;;;359.10;2201.60;;;;;;6309986;22;19999;-74
2021/09/09 02:44:45;;;;;;;13.98;7.40;;;359.10;2201.60;;;;;;6307832;22;20010;-74
2021/09/09 02:47:11;;;;;;;13.13;7.20;;;359.10;2201.60;;;;;;6309559;22;20422;-73
2021/09/09 02:49:36;;;;;;;12.98;7.78;;;359.10;2201.60;;;;;;6309858;22;20006;-74
2021/09/09 02:52:02;;;;;;;13.20;7.43;;;359.10;2201.60;;;;;;6310281;22;20052;-74
2021/09/09 02:54:28;;;;;;;12.55;7.70;;;359.10;2201.60;;;;;;6309750;22;20437;-74
2021/09/09 02:56:54;;;;;;;13.75;7.57;;;359.10;2227.20;;;;;;6309248;22;20424;-74
2021/09/09 02:59:20;;;;;;;14.55;7.25;;;359.10;2201.60;;;;;;6310148;22;20079;-74
2021/09/09 03:01:45;;;;;;;15.25;7.25;;;359.00;2201.60;;;;;;6308565;22;20009;-66
2021/09/09 03:04:11;;;;;;;15.18;7.30;;;359.00;2201.60;;;;;;6310317;22;20402;-75
2021/09/09 03:06:37;;;;;;;13.57;7.50;;;359.00;2201.60;;;;;;6309586;22;20011;-74
2021/09/09 03:09:02;;;;;;;14.98;8.00;;;359.00;2201.60;;;;;;6309627;22;20099;-74
2021/09/09 03:11:28;;;;;;;13.82;7.70;;;358.90;2227.20;;;;;;6309896;22;20000;-74
2021/09/09 03:13:54;;;;;;;12.93;7.63;;;359.00;2227.20;;;;;;6309303;22;20385;-74
2021/09/09 03:16:20;;;;;;;14.80;7.35;;;359.00;2252.80;;;;;;6309976;22;20000;-71
2021/09/09 03:18:45;;;;;;;12.20;6.70;;;359.00;2227.20;;;;;;6282140;22;20007;-75
2021/09/09 03:21:11;;;;;;;12.02;7.07;;;358.90;2227.20;;;;;;6309333;22;20325;-72
2021/09/09 03:23:37;;;;;;;13.05;7.43;;;358.90;2227.20;;;;;;6309889;22;20086;-74
2021/09/09 03:26:03;;;;;;;12.32;7.20;;;359.00;2252.80;;;;;;6309872;22;20082;-73
2021/09/09 03:28:29;;;;;;;11.98;7.32;;;359.00;2252.80;;;;;;6309549;22;20100;-70
2021/09/09 03:30:55;;;;;;;12.30;6.80;;;359.00;2227.20;;;;;;6309878;22;20036;-70
2021/09/09 03:33:20;;;;;;;15.65;7.50;;;359.00;2252.80;;;;;;6309488;22;20329;-74
2021/09/09 03:35:46;;;;;;;13.13;7.05;;;359.00;2252.80;;;;;;6309143;22;20394;-74
2021/09/09 03:38:12;;;;;;;12.68;7.32;;;359.00;2252.80;;;;;;6310410;22;20039;-61
2021/09/09 03:40:38;;;;;;;12.15;7.45;;;359.00;2278.40;;;;;;6311505;22;19996;-62
2021/09/09 03:43:03;;;;;;;12.52;7.50;;;358.90;2278.40;;;;;;6310277;22;20475;-60
2021/09/09 03:45:29;;;;;;;12.25;7.53;;;358.90;2252.80;;;;;;6310493;22;20420;-60
2021/09/09 03:47:56;;;;;;;12.85;8.05;;;358.90;2278.40;;;;;;6307837;22;20011;-65
2021/09/09 03:50:22;;;;;;;13.98;7.70;;;358.90;2278.40;;;;;;6307810;22;20008;-65
2021/09/09 03:52:48;;;;;;;11.68;7.57;;;358.90;2252.80;;;;;;6280701;22;20026;-61
2021/09/09 03:55:14;;;;;;;15.55;7.75;;;358.80;2252.80;;;;;;6307360;22;20010;-60
2021/09/09 03:57:39;;;;;;;13.10;7.38;;;358.80;2278.40;;;;;;6307797;22;20425;-67
2021/09/09 04:00:07;;;;;;;14.32;7.50;;;358.80;2304.00;;;;;;6307477;22;20003;-60
2021/09/09 04:02:33;;;;;;;11.05;7.40;;;358.70;2304.00;;;;;;6307389;22;20003;-60
2021/09/09 04:04:58;;;;;;;12.18;7.47;;;358.80;2304.00;;;;;;6307924;22;20039;-63
2021/09/09 04:07:24;;;;;;;13.15;7.50;;;358.80;2304.00;;;;;;6307260;22;20011;-60
2021/09/09 04:09:50;;;;;;;10.98;7.07;;;358.80;2304.00;;;;;;6307998;22;19995;-61
2021/09/09 04:12:16;;;;;;;11.23;6.97;;;358.70;2304.00;;;;;;6307477;22;19999;-60
2021/09/09 04:14:41;;;;;;;14.15;7.60;;;358.70;2329.60;;;;;;6307390;22;20000;-61
2021/09/09 04:17:07;;;;;;;11.35;7.22;;;358.70;2329.60;;;;;;6307784;22;20006;-63
2021/09/09 04:19:33;;;;;;;13.45;6.97;;;358.70;2329.60;;;;;;6307807;22;20007;-61
2021/09/09 04:22:01;;;;;;;14.50;7.22;;;358.70;2329.60;;;;;;6307084;22;19997;-60
2021/09/09 04:24:28;;;;;;;13.60;7.75;;;358.70;2329.60;;;;;;6307632;22;20050;-61
2021/09/09 04:26:53;;;;;;;11.60;7.00;;;358.70;2329.60;;;;;;6307620;22;20027;-60
2021/09/09 04:29:19;;;;;;;11.40;7.03;;;358.70;2329.60;;;;;;6307347;22;20432;-63
2021/09/09 04:31:45;;;;;;;11.35;6.43;;;358.70;2329.60;;;;;;6279356;22;20086;-60
2021/09/09 04:34:11;;;;;;;10.13;6.40;;;358.70;2329.60;;;;;;6279618;22;20065;-62
2021/09/09 04:36:36;;;;;;;13.55;7.05;;;358.40;2304.00;;;;;;6307237;22;20003;-60
2021/09/09 04:39:02;;;;;;;13.07;7.65;;;358.80;2329.60;;;;;;6307218;22;20035;-62
2021/09/09 04:41:30;;;;;;;13.85;7.20;;;358.80;2329.60;;;;;;6306929;22;20019;-61
2021/09/09 04:43:55;;;;;;;14.45;7.03;;;358.90;2329.60;;;;;;6307048;22;20003;-61
2021/09/09 04:46:21;;;;;;;9.35;6.05;;;358.90;2329.60;;;;;;6307117;22;20025;-60
2021/09/09 04:48:46;;;;;;;10.65;6.55;;;358.90;2304.00;;;;;;6307499;22;20000;-61
2021/09/09 04:51:12;;;;;;;12.10;6.88;;;359.10;2304.00;;;;;;6307288;22;20428;-63
2021/09/09 04:53:38;;;;;;;14.30;6.88;;;359.10;2304.00;;;;;;6278822;22;20086;-60
2021/09/09 04:56:04;;;;;;;9.05;6.40;;;359.10;2304.00;;;;;;6306210;22;19995;-60
2021/09/09 04:58:29;;;;;;;9.75;6.40;;;359.20;2329.60;;;;;;6306020;22;20014;-60
2021/09/09 05:00:55;;;;;;;10.85;6.50;;;359.30;2304.00;;;;;;6305024;22;19995;-61
2021/09/09 05:03:21;;;;;;;15.88;6.50;;;384.00;2304.00;;;;;;6305840;22;20003;-60
2021/09/09 05:05:47;;;;;;;9.73;6.50;;;384.10;2278.40;;;;;;6306405;22;20002;-60
2021/09/09 05:08:13;;;;;;;10.70;7.00;;;384.10;2304.00;;;;;;6306267;22;20649;-60
2021/09/09 05:10:40;;;;;;;11.30;6.72;;;384.20;2278.40;;;;;;6307096;22;20010;-61
2021/09/09 05:13:06;;;;;;;12.73;6.68;;;384.20;2304.00;;;;;;6280855;22;19999;-60
2021/09/09 05:15:31;;;;;;;14.02;7.07;;;384.30;2278.40;;;;;;6308439;22;20097;-61
2021/09/09 05:17:58;;;;;;;12.40;6.88;;;384.40;2278.40;;;;;;6308325;22;20364;-60
2021/09/09 05:20:23;;;;;;;14.68;6.93;;;384.50;2252.80;;;;;;6280956;22;20006;-61
2021/09/09 05:22:50;;;;;;;15.20;7.57;;;384.60;2252.80;;;;;;6307896;22;20003;-62
2021/09/09 05:25:16;;;;;;;11.02;6.75;;;384.60;2252.80;;;;;;6307438;22;20428;-63
2021/09/09 05:27:42;;;;;;;10.52;6.50;;;384.60;2252.80;;;;;;6279169;22;20018;-63
2021/09/09 05:30:09;;;;;;;11.48;7.00;;;384.70;2227.20;;;;;;6306266;22;20003;-63
2021/09/09 05:32:35;;;;;;;10.18;6.32;;;384.80;2252.80;;;;;;6306934;22;20027;-63
2021/09/09 05:35:04;;;;;;;10.75;6.38;;;384.80;2227.20;;;;;;6306286;22;20444;-64
2021/09/09 05:37:30;;;;;;;13.40;5.85;;;384.90;2227.20;;;;;;6306362;22;20442;-63
2021/09/09 05:39:55;;;;;;;11.80;6.28;;;384.90;2201.60;;;;;;6306244;22;19991;-63
2021/09/09 05:42:21;;;;;;;11.98;6.22;;;409.60;2252.80;;;;;;6307147;22;20010;-63
2021/09/09 05:44:48;;;;;;;13.45;6.40;;;409.70;2252.80;;;;;;6306920;22;20000;-63
2021/09/09 05:47:13;;;;;;;11.73;6.57;;;409.80;2252.80;;;;;;6306254;22;20014;-62
2021/09/09 05:49:39;;;;;;;9.65;5.75;;;409.90;2278.40;;;;;;6304358;22;19999;-65
2021/09/09 05:52:06;;;;;;;9.70;5.75;;;410.00;2252.80;;;;;;6300628;22;20364;-64
2021/09/09 05:54:32;;;;;;;14.13;6.10;;;410.10;2252.80;;;;;;6304684;22;20367;-65
2021/09/09 05:56:59;;;;;;;12.07;5.47;;;410.20;2252.80;;;;;;6275912;22;20326;-64
2021/09/09 05:59:25;;;;;;;12.55;5.68;;;410.30;2227.20;;;;;;6303520;22;20003;-62
2021/09/09 06:01:50;;;;;;;8.98;5.55;;;410.50;2227.20;;;;;;6276717;22;20007;-63
2021/09/09 06:04:21;;;;;;;11.60;5.18;;;435.30;2201.60;;;;;;6303383;22;20317;-63
2021/09/09 06:06:47;;;;;;;9.77;5.00;;;435.40;2176.00;;;;;;6303767;22;20014;-63
2021/09/09 06:09:14;;;;;;;10.40;5.20;;;435.50;2150.40;;;;;;6302932;22;20026;-63
2021/09/09 06:11:40;;;;;;;8.60;4.47;;;435.70;2201.60;;;;;;6304953;22;20057;-62
2021/09/09 06:14:06;;;;;;;8.38;5.15;;;435.80;2201.60;;;;;;6304882;22;20003;-63
2021/09/09 06:16:32;;;;;;;9.32;4.72;;;435.90;2176.00;;;;;;6306137;22;20049;-63
2021/09/09 06:18:58;;;;;;;10.63;5.22;;;436.10;2201.60;;;;;;6305776;22;20027;-63
2021/09/09 06:21:24;;;;;;;8.13;4.95;;;460.90;2176.00;;;;;;6306691;22;20413;-63
2021/09/09 06:23:50;;;;;;;9.57;4.70;;;460.90;2176.00;;;;;;6307546;22;20006;-63
2021/09/09 06:26:17;;;;;;;9.68;4.80;;;461.10;2150.40;;;;;;6306573;22;20006;-63
2021/09/09 06:28:43;;;;;;;9.23;4.97;;;461.20;2150.40;;;;;;6306944;22;20321;-64
2021/09/09 06:31:08;;;;;;;8.77;4.20;;;461.30;2099.20;;;;;;6299710;22;20002;-63
2021/09/09 06:33:34;;;;;;;9.13;4.65;;;461.40;2048.00;;;;;;6306858;22;20060;-62
2021/09/09 06:36:00;;;;;;;7.50;4.53;;;461.70;2022.40;;;;;;6278699;22;20061;-63
2021/09/09 06:38:26;;;;;;;7.90;4.20;;;486.40;1996.80;;;;;;6307546;22;20012;-63
2021/09/09 06:40:51;;;;;;;8.07;4.53;;;486.40;1920.00;;;;;;6307643;22;20041;-62
2021/09/09 06:43:17;;;;;;;10.43;4.35;;;486.60;1945.60;;;;;;6277681;22;20014;-64
2021/09/09 06:45:43;;;;;;;10.75;4.50;;;486.70;1920.00;;;;;;6307007;22;20316;-63
2021/09/09 06:48:08;;;;;;;10.98;4.97;;;486.80;1920.00;;;;;;6305637;22;20061;-62
2021/09/09 06:50:34;;;;;;;9.10;4.13;;;487.00;1894.40;;;;;;6307820;22;20329;-63
2021/09/09 06:53:01;;;;;;;11.05;4.18;;;487.20;1894.40;;;;;;6306043;22;20034;-63
2021/09/09 06:55:26;;;;;;;10.52;4.20;;;487.30;1843.20;;;;;;6279845;22;19999;-62
2021/09/09 06:57:52;;;;;;;6.82;4.25;;;512.10;1817.60;;;;;;6306475;22;20052;-62
2021/09/09 07:00:18;;;;;;;8.43;3.97;;;512.30;1792.00;;;;;;6306130;22;20449;-60
2021/09/09 07:02:44;;;;;;;10.45;3.78;;;512.60;1766.40;;;;;;6306400;22;20003;-63
2021/09/09 07:05:11;;;;;;;7.75;3.65;;;537.60;1740.80;;;;;;6304872;22;19995;-61
2021/09/09 07:07:40;;;;;;;9.07;3.70;;;537.90;1715.20;;;;;;6306440;22;20489;-62
2021/09/09 07:10:08;;;;;;;6.85;3.78;;;538.30;1664.00;;;;;;6305948;22;20064;-62
2021/09/09 07:12:33;;;;;;;8.65;3.72;;;538.50;1689.60;;;;;;6306243;22;20375;-61
2021/09/09 07:14:59;;;;;;;9.77;3.75;;;563.30;1664.00;;;;;;6306427;22;20022;-62
2021/09/09 07:17:25;;;;;;;7.75;3.90;;;563.50;1638.40;;;;;;6306465;22;20007;-63
2021/09/09 07:19:51;;;;;;;9.55;3.80;;;563.50;1612.80;;;;;;6306991;22;20002;-62
2021/09/09 07:22:16;;;;;;;7.50;3.72;;;563.60;1612.80;;;;;;6305439;22;20007;-62
2021/09/09 07:24:42;;;;;;;7.72;3.30;;;563.70;1587.20;;;;;;6307395;22;20034;-62
2021/09/09 07:27:08;;;;;;;9.10;3.15;;;563.90;1587.20;;;;;;6304752;22;20033;-62
2021/09/09 07:29:33;;;;;;;8.77;3.80;;;563.90;1561.60;;;;;;6306937;22;20054;-61
2021/09/09 07:31:59;;;;;;;7.53;3.53;;;563.90;1561.60;;;;;;6299314;22;20007;-62
2021/09/09 07:34:25;;;;;;;8.88;3.55;;;588.80;1587.20;;;;;;6306208;22;20042;-63
2021/09/09 07:36:52;;;;;;;5.75;3.20;;;589.00;1536.00;;;;;;6306886;22;20046;-63
2021/09/09 07:39:19;;;;;;;8.23;3.33;;;589.10;1536.00;;;;;;6305586;22;20290;-63
2021/09/09 07:41:45;;;;;;;9.80;3.35;;;589.30;1536.00;;;;;;6306022;22;20053;-63
2021/09/09 07:44:11;;;;;;;7.25;3.22;;;589.50;1484.80;;;;;;6305376;22;20007;-63
2021/09/09 07:46:37;;;;;;;9.70;3.00;;;589.60;1484.80;;;;;;6306374;22;20007;-62
2021/09/09 07:49:03;;;;;;;7.10;3.10;;;589.70;1459.20;;;;;;6305229;22;20006;-65
2021/09/09 07:51:30;;;;;;;5.50;3.20;;;614.50;1459.20;;;;;;6306055;22;19999;-65
2021/09/09 07:53:57;;;;;;;8.60;3.13;;;614.40;1408.00;;;;;;6306211;22;20002;-64
2021/09/09 07:56:23;;;;;;;9.80;2.80;;;614.70;1433.60;;;;;;6306515;22;20007;-64
2021/09/09 07:58:49;;;;;;;8.00;3.15;;;614.90;1382.40;;;;;;6305630;22;20006;-63
2021/09/09 08:01:21;;;;;;;9.50;2.83;;;615.00;1356.80;;;;;;6305944;22;19999;-64
2021/09/09 08:03:48;;;;;;;11.65;5.47;;;615.10;1356.80;;;;;;6306330;22;20325;-65
2021/09/09 08:06:14;;;;;;;6.95;2.60;;;615.30;1356.80;;;;;;6305642;22;20026;-63
2021/09/09 08:08:41;;;;;;;8.70;3.17;;;640.00;1305.60;;;;;;6305520;22;19999;-64
2021/09/09 08:11:07;;;;;;;7.03;2.70;;;640.00;1305.60;;;;;;6305596;22;20007;-64
2021/09/09 08:13:34;;;;;;;5.97;2.50;;;615.30;1305.60;;;;;;6305460;22;20439;-63
2021/09/09 08:16:00;;;;;;;9.63;2.80;;;615.30;1280.00;;;;;;6305147;22;20305;-63
2021/09/09 08:18:26;;;;;;;5.63;2.78;;;640.10;1280.00;;;;;;6306002;22;20007;-64
2021/09/09 08:20:54;;;;;;;6.88;2.40;;;640.20;1254.40;;;;;;6278963;22;20035;-65
2021/09/09 08:23:22;;;;;;;11.38;3.22;;;640.60;1305.60;;;;;;6304917;22;20038;-65
2021/09/09 08:25:48;;;;;;;8.25;2.67;;;640.80;1280.00;;;;;;6305673;22;20444;-62
2021/09/09 08:28:17;;;;;;;7.97;2.40;;;665.60;1254.40;;;;;;6304098;22;20019;-63
2021/09/09 08:30:43;;;;;;;12.30;2.78;;;665.60;1228.80;;;;;;6299751;22;20003;-64
2021/09/09 08:33:09;;;;;;;12.00;2.60;;;665.70;1177.60;;;;;;6305018;22;20054;-62
2021/09/09 08:35:34;;;;;;;4.78;2.10;;;666.20;1152.00;;;;;;6305304;22;20011;-65
2021/09/09 08:38:00;;;;;;;6.75;2.30;;;666.20;1126.40;;;;;;6304472;22;20000;-62
2021/09/09 08:40:27;;;;;;;7.03;2.40;;;666.20;1100.80;;;;;;6305982;22;20003;-62
2021/09/09 08:42:52;;;;;;;7.85;2.53;;;666.40;1100.80;;;;;;6305397;22;20006;-62
2021/09/09 08:45:18;;;;;;;11.65;2.90;;;691.20;1049.60;;;;;;6304803;22;20078;-63
2021/09/09 08:47:46;;;;;;;;;;;691.50;1049.60;;;;;;6305870;22;20393;-63
2021/09/09 08:50:12;;;;;;;9.50;2.60;;;691.70;1049.60;;;;;;6305022;22;19898;-65
2021/09/09 08:52:38;;;;;;;6.68;2.42;;;716.80;1049.60;;;;;;6305848;22;20369;-63
2021/09/09 08:55:04;;;;;;;5.80;2.50;;;717.60;1024.00;;;;;;6303630;22;20007;-63
2021/09/09 08:57:32;;;;;;;8.30;2.72;;;743.00;998.40;;;;;;6303621;22;20045;-62
2021/09/09 09:00:02;;;;;;;6.40;2.50;;;768.40;896.00;;;;;;6303303;22;20000;-63
2021/09/09 09:02:28;;;;;;;6.45;2.60;;;794.50;870.40;;;;;;6277656;22;20004;-59
2021/09/09 09:05:07;;;;;;;6.72;2.50;;;820.10;844.80;;;;;;6304728;22;19999;-60
2021/09/09 09:07:35;;;;;;;8.48;2.50;;;845.60;844.80;;;;;;6304002;22;20327;-61
2021/09/09 09:10:06;;;;;;;8.13;2.67;;;871.20;793.60;;;;;;6303913;22;20011;-61
2021/09/09 09:12:41;;;;;;;9.52;2.83;;;921.80;793.60;;;;;;6304237;22;20003;-61
2021/09/09 09:15:29;;;;;;;9.05;2.80;;;922.50;691.20;;;;;;6303409;22;20388;-61
2021/09/09 09:18:02;;;;;;;5.43;2.50;;;973.30;691.20;;;;;;6276305;22;19999;-62
2021/09/09 09:20:40;;;;;;;;;;;973.70;640.00;;;;;;6304752;22;20357;-64
2021/09/09 09:23:08;;;;;;;9.27;2.80;;;973.60;614.40;;;;;;6303488;22;19949;-63
2021/09/09 09:25:58;;;;;;;8.55;2.45;;;998.50;640.00;;;;;;6304392;22;20006;-63
2021/09/09 09:28:35;;;;;;;6.60;2.20;;;1024.00;614.40;;;;;;6305521;22;20011;-61
2021/09/09 09:31:10;;;;;;;6.70;2.13;;;1024.20;588.80;;;;;;6298763;22;20070;-60
2021/09/09 09:33:39;;;;;;;3.55;1.75;;;1024.10;563.20;;;;;;6277759;22;19995;-61
2021/09/09 09:36:34;;;;;;;6.30;2.28;;;998.60;614.40;;;;;;6300082;22;20108;-60
2021/09/09 09:39:13;;;;;;;5.75;2.17;;;998.60;588.80;;;;;;6307709;22;19995;-61
2021/09/09 09:41:54;;;;;;;5.57;2.10;;;973.60;588.80;;;;;;6308056;22;20124;-60
2021/09/09 09:44:34;;;;;;;9.50;2.28;;;947.70;614.40;;;;;;6307978;22;19999;-60
2021/09/09 09:47:20;;;;;;;4.93;2.03;;;948.00;614.40;;;;;;6307775;22;20441;-59
2021/09/09 09:49:50;;;;;;;8.60;1.98;;;948.00;588.80;;;;;;6307967;22;20026;-60
2021/09/09 09:52:24;;;;;;;4.40;2.22;;;896.80;640.00;;;;;;6307662;22;19999;-61
2021/09/09 09:54:54;;;;;;;5.25;2.28;;;896.30;665.60;;;;;;6280238;22;20007;-62
2021/09/09 09:57:21;;;;;;;7.53;2.30;;;896.50;665.60;;;;;;6307296;22;20022;-61
2021/09/09 09:59:47;;;;;;;5.20;2.30;;;896.80;640.00;;;;;;6307959;22;20026;-62
2021/09/09 10:02:13;;;;;;;9.25;3.30;;;947.30;614.40;;;;;;6305900;22;20425;-61
2021/09/09 10:04:44;;;;;;;10.90;5.57;;;947.20;640.00;;;;;;6307238;22;20004;-60
2021/09/09 10:07:11;;;;;;;10.55;4.35;;;947.30;640.00;;;;;;6304468;22;20007;-62
2021/09/09 10:09:38;;;;;;;15.40;11.65;;;948.00;588.80;;;;;;6307234;22;20000;-63
2021/09/09 10:12:06;;;;;;;6.07;2.10;;;972.90;614.40;;;;;;6307405;22;20405;-61
2021/09/09 10:14:32;;;;;;;5.55;2.13;;;973.10;588.80;;;;;;6307670;22;20083;-61
2021/09/09 10:17:00;;;;;;;7.18;2.38;;;998.80;563.20;;;;;;6307803;22;20326;-61
2021/09/09 10:19:29;;;;;;;8.15;6.03;;;998.60;588.80;;;;;;6307643;22;19996;-60
2021/09/09 10:22:11;;;;;;;7.32;3.22;;;998.90;563.20;;;;;;6307643;22;19999;-60
2021/09/09 10:24:38;;;;;;;7.28;4.18;;;1024.50;512.00;;;;;;6307483;22;20004;-60
2021/09/09 10:27:35;;;;;;;8.88;7.97;;;1050.10;486.40;;;;;;6306838;22;20014;-60
2021/09/09 10:30:05;;;;;;;14.90;8.63;;;1075.20;460.80;;;;;;6307360;22;20429;-60
2021/09/09 10:32:36;;;;;;;5.68;2.20;;;1075.60;460.80;;;;;;6307395;22;20438;-62
2021/09/09 10:35:17;;;;;;;7.05;2.33;;;1076.10;460.80;;;;;;6306980;22;20011;-61
2021/09/09 10:37:53;;;;;;;8.18;4.63;;;1101.50;435.20;;;;;;6307307;22;19996;-60
2021/09/09 10:40:30;;;;;;;8.45;6.25;;;1126.70;435.20;;;;;;6279942;22;19999;-61
2021/09/09 10:43:11;;;;;;;8.80;2.92;;;1126.60;435.20;;;;;;6307463;22;20436;-61
2021/09/09 10:45:42;;;;;;;7.55;2.22;;;1126.80;435.20;;;;;;6280279;22;20004;-61
2021/09/09 10:48:14;;;;;;;6.63;2.13;;;1152.10;409.60;;;;;;6306957;22;20011;-62
2021/09/09 10:50:40;;;;;;;6.28;2.22;;;1126.80;435.20;;;;;;6307299;22;19996;-61
2021/09/09 10:53:12;;;;;;;7.75;2.20;;;1152.90;409.60;;;;;;6307273;22;20030;-60
2021/09/09 10:55:40;;;;;;;9.05;2.55;;;1178.50;409.60;;;;;;6279875;22;20004;-61
2021/09/09 10:58:21;;;;;;;7.43;2.20;;;1204.00;435.20;;;;;;6307794;22;20452;-60
2021/09/09 11:00:54;;;;;;;5.05;2.28;;;1229.10;460.80;;;;;;6309733;22;20082;-61
2021/09/09 11:03:39;;;;;;;8.55;2.45;;;1203.70;435.20;;;;;;6307753;22;19996;-62
2021/09/09 11:06:10;;;;;;;9.45;5.40;;;1203.30;435.20;;;;;;6307955;22;20003;-61
2021/09/09 11:08:37;;;;;;;9.57;4.68;;;1178.50;409.60;;;;;;6308781;22;20007;-62
2021/09/09 11:11:12;;;;;;;4.93;3.40;;;1228.90;460.80;;;;;;6309079;22;20004;-62
2021/09/09 11:13:39;;;;;;;5.93;2.00;;;1228.80;460.80;;;;;;6308315;22;20000;-61
2021/09/09 11:16:22;;;;;;;4.75;2.20;;;1203.80;435.20;;;;;;6308133;22;19999;-63
2021/09/09 11:18:48;;;;;;;4.93;2.05;;;1178.40;409.60;;;;;;6308753;22;20073;-62
2021/09/09 11:21:42;;;;;;;8.90;2.35;;;1204.00;435.20;;;;;;6308479;22;20018;-61
2021/09/09 11:24:10;;;;;;;5.50;2.25;;;1229.60;460.80;;;;;;6308385;22;20033;-62
2021/09/09 11:26:38;;;;;;;4.78;2.20;;;1254.70;486.40;;;;;;6309156;22;19999;-61
2021/09/09 11:29:05;;;;;;;6.78;2.80;;;1229.10;460.80;;;;;;6309404;22;20414;-61
2021/09/09 11:31:33;;;;;;;8.30;2.30;;;1203.60;435.20;;;;;;6281644;22;20026;-62
2021/09/09 11:34:06;;;;;;;10.48;2.75;;;1203.80;435.20;;;;;;6308570;22;20019;-62
2021/09/09 11:36:34;;;;;;;8.30;2.40;;;1229.10;460.80;;;;;;6308784;22;20003;-62
2021/09/09 11:39:03;;;;;;;5.90;2.35;;;1178.20;409.60;;;;;;6308839;22;20006;-62
2021/09/09 11:41:31;;;;;;;5.85;4.50;;;1178.10;409.60;;;;;;6308917;22;20003;-61
2021/09/09 11:43:59;;;;;;;6.65;2.30;;;1178.20;409.60;;;;;;6281136;22;20452;-61
2021/09/09 11:46:30;;;;;;;6.20;2.20;;;1126.90;409.60;;;;;;6308995;22;20058;-63
2021/09/09 11:49:01;;;;;;;5.70;2.35;;;1126.80;409.60;;;;;;6309055;22;20011;-63
2021/09/09 11:51:31;;;;;;;6.40;2.00;;;1152.60;409.60;;;;;;6308861;22;19995;-62
2021/09/09 11:53:57;;;;;;;4.38;2.20;;;1203.20;435.20;;;;;;6308625;22;19999;-62
2021/09/09 11:56:23;;;;;;;4.38;2.20;;;1203.20;435.20;;;;;;6308558;22;20341;-63
2021/09/09 11:58:49;;;;;;;6.93;2.30;;;1228.80;460.80;;;;;;6308626;22;19995;-62
2021/09/09 12:01:15;;;;;;;6.72;2.15;;;1204.10;435.20;;;;;;6308862;22;20007;-64
2021/09/09 12:03:47;;;;;;;5.75;2.03;;;1203.60;435.20;;;;;;6308302;22;20433;-63
2021/09/09 12:06:18;;;;;;;8.93;2.65;;;1203.50;435.20;;;;;;6308765;22;20025;-63
2021/09/09 12:08:46;;;;;;;6.55;2.20;;;1203.60;435.20;;;;;;6308344;22;19992;-63
2021/09/09 12:11:14;;;;;;;5.18;2.00;;;1203.30;435.20;;;;;;6308942;22;20011;-61
2021/09/09 12:13:41;;;;;;;6.68;2.13;;;1203.60;435.20;;;;;;6308972;22;20007;-64
2021/09/09 12:16:15;;;;;;;4.68;2.47;;;1203.70;435.20;;;;;;6308716;22;20003;-62